Time;durP1;ratioP1;P1;durP2;ratioP2;P2;SDS_P1;SDS_P2;PMS_P1;PMS_P2;Temp;Humidity;BMP_temperature;BMP_pressure;BME280_temperature;BME280_humidity;BME280_pressure;Samples;Min_cycle;Max_cycle;Signal;HPM_P1;HPM_P2
2022/08/16 00:02:25;;;;;;;;;12.25;10.25;;;;;;;;4979939;28;8842;-80
2022/08/16 00:04:53;;;;;;;;;11.00;9.50;;;;;;;;4977476;28;9645;-79
2022/08/16 00:07:20;;;;;;;;;11.25;10.00;;;;;;;;4981944;28;8909;-79
2022/08/16 00:09:49;;;;;;;;;12.50;12.50;;;;;;;;4980822;28;8863;-79
2022/08/16 00:12:16;;;;;;;;;11.25;11.25;;;;;;;;4977609;28;8883;-78
2022/08/16 00:14:43;;;;;;;;;11.00;11.00;;;;;;;;4982804;28;8874;-78
2022/08/16 00:17:11;;;;;;;;;10.75;10.75;;;;;;;;4977172;28;8917;-78
2022/08/16 00:19:38;;;;;;;;;10.25;10.00;;;;;;;;4981554;28;8871;-79
2022/08/16 00:22:08;;;;;;;;;14.50;11.50;;;;;;;;4980737;28;8916;-79
2022/08/16 00:24:37;;;;;;;;;11.00;10.50;;;;;;;;4982652;28;8932;-78
2022/08/16 00:27:07;;;;;;;;;12.00;12.00;;;;;;;;4978911;28;8925;-79
2022/08/16 00:29:37;;;;;;;;;10.50;9.25;;;;;;;;4980895;28;9678;-78
2022/08/16 00:32:08;;;;;;;;;9.25;9.25;;;;;;;;4981708;28;8835;-79
2022/08/16 00:34:37;;;;;;;;;12.25;12.25;;;;;;;;4978441;28;8921;-79
2022/08/16 00:37:04;;;;;;;;;16.00;12.50;;;;;;;;4980087;28;8878;-78
2022/08/16 00:39:31;;;;;;;;;13.25;13.25;;;;;;;;4976345;28;9667;-79
2022/08/16 00:41:59;;;;;;;;;8.50;8.50;;;;;;;;4978731;28;8866;-78
2022/08/16 00:44:28;;;;;;;;;11.00;11.00;;;;;;;;4976418;28;8870;-78
2022/08/16 00:47:00;;;;;;;;;8.50;8.50;;;;;;;;4979974;28;8871;-78
2022/08/16 00:49:28;;;;;;;;;10.25;10.25;;;;;;;;4980445;28;8929;-77
2022/08/16 00:51:55;;;;;;;;;10.25;10.25;;;;;;;;4979137;28;8890;-78
2022/08/16 00:54:24;;;;;;;;;9.50;9.50;;;;;;;;4982116;28;8911;-78
2022/08/16 00:56:52;;;;;;;;;11.50;11.50;;;;;;;;4980460;28;8879;-78
2022/08/16 00:59:23;;;;;;;;;10.75;10.75;;;;;;;;4978192;28;8894;-78
2022/08/16 01:01:52;;;;;;;;;9.75;9.75;;;;;;;;4977589;28;8827;-79
2022/08/16 01:04:22;;;;;;;;;11.50;10.00;;;;;;;;4977017;28;9736;-79
2022/08/16 01:06:50;;;;;;;;;8.75;8.75;;;;;;;;4982279;28;8883;-79
2022/08/16 01:09:17;;;;;;;;;10.75;10.75;;;;;;;;4979564;28;8837;-79
2022/08/16 01:11:46;;;;;;;;;10.50;10.50;;;;;;;;4980443;28;8907;-78
2022/08/16 01:14:17;;;;;;;;;11.00;11.00;;;;;;;;4980503;28;8887;-78
2022/08/16 01:16:45;;;;;;;;;14.50;11.25;;;;;;;;4979680;28;8881;-78
2022/08/16 01:19:20;;;;;;;;;11.50;11.50;;;;;;;;4977620;28;8882;-78
2022/08/16 01:21:56;;;;;;;;;11.50;11.50;;;;;;;;4976228;28;8875;-78
2022/08/16 01:24:29;;;;;;;;;11.00;11.00;;;;;;;;4980322;28;8855;-78
2022/08/16 01:27:02;;;;;;;;;11.75;11.25;;;;;;;;4980087;28;8879;-79
2022/08/16 01:29:34;;;;;;;;;12.25;10.00;;;;;;;;4982308;28;8909;-79
2022/08/16 01:32:02;;;;;;;;;13.50;12.25;;;;;;;;4980827;28;8828;-79
2022/08/16 01:34:30;;;;;;;;;11.75;11.75;;;;;;;;4977105;28;9625;-78
2022/08/16 01:37:00;;;;;;;;;11.00;11.00;;;;;;;;4978027;28;8949;-78
2022/08/16 01:39:28;;;;;;;;;13.00;11.25;;;;;;;;4978829;28;8883;-78
2022/08/16 01:41:56;;;;;;;;;15.25;12.50;;;;;;;;4976674;28;8886;-79
2022/08/16 01:44:23;;;;;;;;;10.25;10.25;;;;;;;;4975640;28;8941;-78
2022/08/16 01:46:52;;;;;;;;;11.50;11.50;;;;;;;;4976283;28;8901;-77
2022/08/16 01:49:22;;;;;;;;;10.25;10.25;;;;;;;;4978977;28;8878;-78
2022/08/16 01:51:53;;;;;;;;;12.75;11.00;;;;;;;;4977962;28;8859;-78
2022/08/16 01:54:21;;;;;;;;;10.00;10.00;;;;;;;;4981809;28;8957;-78
2022/08/16 01:56:50;;;;;;;;;11.50;11.50;;;;;;;;4980547;28;8840;-78
2022/08/16 01:59:17;;;;;;;;;10.75;9.50;;;;;;;;4982189;28;9570;-78
2022/08/16 02:01:45;;;;;;;;;10.25;10.25;;;;;;;;4974437;28;8928;-78
2022/08/16 02:04:12;;;;;;;;;11.00;11.00;;;;;;;;4973685;28;8855;-78
2022/08/16 02:06:40;;;;;;;;;11.00;11.00;;;;;;;;4975173;28;8878;-78
2022/08/16 02:09:10;;;;;;;;;12.50;11.75;;;;;;;;4978248;28;8924;-77
2022/08/16 02:11:39;;;;;;;;;13.25;13.25;;;;;;;;4978644;28;8978;-78
2022/08/16 02:14:08;;;;;;;;;15.00;15.00;;;;;;;;4976253;28;8899;-77
2022/08/16 02:16:35;;;;;;;;;10.75;10.75;;;;;;;;4981157;28;8865;-77
2022/08/16 02:19:03;;;;;;;;;12.50;12.50;;;;;;;;4977457;28;8875;-77
2022/08/16 02:21:31;;;;;;;;;14.00;11.00;;;;;;;;4979769;28;9001;-77
2022/08/16 02:23:58;;;;;;;;;14.25;14.25;;;;;;;;4978801;28;8871;-77
2022/08/16 02:26:26;;;;;;;;;11.75;11.50;;;;;;;;4980127;28;8982;-77
2022/08/16 02:28:53;;;;;;;;;14.00;14.00;;;;;;;;4983011;28;8895;-77
2022/08/16 02:31:22;;;;;;;;;12.00;12.00;;;;;;;;4989509;28;9598;-77
2022/08/16 02:33:50;;;;;;;;;13.00;12.25;;;;;;;;5004198;28;9421;-77
2022/08/16 02:36:18;;;;;;;;;10.50;10.50;;;;;;;;4998857;28;8864;-77
2022/08/16 02:38:46;;;;;;;;;13.00;11.00;;;;;;;;4998736;28;8917;-76
2022/08/16 02:41:13;;;;;;;;;13.50;10.00;;;;;;;;4997653;28;8876;-77
2022/08/16 02:43:41;;;;;;;;;11.50;11.50;;;;;;;;5001529;28;8872;-77
2022/08/16 02:46:10;;;;;;;;;11.00;9.00;;;;;;;;4999003;28;8856;-76
2022/08/16 02:48:39;;;;;;;;;10.25;10.25;;;;;;;;5003905;28;9661;-77
2022/08/16 02:51:11;;;;;;;;;15.00;12.75;;;;;;;;5001559;28;8880;-77
2022/08/16 02:53:40;;;;;;;;;16.00;14.25;;;;;;;;4997527;28;8860;-77
2022/08/16 02:56:08;;;;;;;;;13.50;13.50;;;;;;;;5004315;28;8966;-77
2022/08/16 02:58:38;;;;;;;;;15.00;14.25;;;;;;;;5000590;28;9003;-77
2022/08/16 03:01:09;;;;;;;;;9.75;9.75;;;;;;;;5001823;28;8825;-77
2022/08/16 03:03:38;;;;;;;;;14.25;13.50;;;;;;;;5002600;28;8887;-77
2022/08/16 03:06:08;;;;;;;;;9.75;7.75;;;;;;;;4999140;28;8880;-77
2022/08/16 03:08:36;;;;;;;;;15.00;13.25;;;;;;;;4998214;28;8888;-78
2022/08/16 03:11:03;;;;;;;;;12.00;8.75;;;;;;;;5001519;28;8878;-78
2022/08/16 03:13:31;;;;;;;;;10.50;10.50;;;;;;;;5001138;28;8890;-78
2022/08/16 03:15:58;;;;;;;;;12.75;12.75;;;;;;;;5000933;28;8888;-78
2022/08/16 03:18:26;;;;;;;;;10.75;10.75;;;;;;;;5003831;28;8892;-77
2022/08/16 03:20:55;;;;;;;;;11.25;11.25;;;;;;;;4999962;28;8890;-78
2022/08/16 03:23:22;;;;;;;;;13.75;13.75;;;;;;;;5002500;28;8998;-77
2022/08/16 03:25:50;;;;;;;;;11.00;11.00;;;;;;;;5000374;28;9427;-77
2022/08/16 03:28:17;;;;;;;;;14.75;12.50;;;;;;;;5002135;28;8900;-77
2022/08/16 03:30:44;;;;;;;;;7.25;7.25;;;;;;;;5001252;28;8915;-77
2022/08/16 03:33:12;;;;;;;;;11.25;11.25;;;;;;;;4999638;28;8915;-78
2022/08/16 03:35:41;;;;;;;;;14.25;11.75;;;;;;;;5003965;28;8910;-78
2022/08/16 03:38:12;;;;;;;;;16.00;16.00;;;;;;;;5001730;28;8860;-77
2022/08/16 03:40:41;;;;;;;;;12.75;12.75;;;;;;;;5002885;28;8902;-77
2022/08/16 03:43:11;;;;;;;;;12.50;12.50;;;;;;;;5001972;28;8974;-78
2022/08/16 03:45:39;;;;;;;;;16.50;14.50;;;;;;;;5001026;28;8890;-77
2022/08/16 03:48:08;;;;;;;;;15.50;15.50;;;;;;;;4999493;28;8892;-78
2022/08/16 03:50:36;;;;;;;;;17.25;16.50;;;;;;;;5001875;28;8877;-78
2022/08/16 03:53:05;;;;;;;;;12.00;12.00;;;;;;;;5001581;28;9027;-77
2022/08/16 03:55:34;;;;;;;;;13.00;12.25;;;;;;;;5003441;28;8890;-77
2022/08/16 03:58:01;;;;;;;;;11.50;10.25;;;;;;;;4998880;28;8876;-78
2022/08/16 04:00:30;;;;;;;;;15.50;13.75;;;;;;;;5000209;28;8836;-77
2022/08/16 04:03:05;;;;;;;;;11.75;10.50;;;;;;;;5002465;28;8918;-78
2022/08/16 04:05:34;;;;;;;;;10.25;10.25;;;;;;;;5003158;28;8872;-78
2022/08/16 04:08:01;;;;;;;;;14.00;14.00;;;;;;;;4998669;28;8880;-77
2022/08/16 04:10:29;;;;;;;;;16.50;16.50;;;;;;;;5002103;28;8902;-78
2022/08/16 04:12:58;;;;;;;;;15.50;14.75;;;;;;;;5000654;28;8986;-77
2022/08/16 04:15:29;;;;;;;;;12.50;12.50;;;;;;;;5001902;28;8888;-78
2022/08/16 04:17:56;;;;;;;;;17.00;14.75;;;;;;;;5002574;28;8868;-77
2022/08/16 04:20:24;;;;;;;;;13.00;12.75;;;;;;;;4998820;28;8882;-78
2022/08/16 04:22:52;;;;;;;;;13.25;13.25;;;;;;;;5002584;28;8873;-77
2022/08/16 04:25:21;;;;;;;;;16.50;14.00;;;;;;;;4997497;28;8892;-76
2022/08/16 04:27:48;;;;;;;;;14.00;14.00;;;;;;;;4997526;28;8874;-79
2022/08/16 04:30:18;;;;;;;;;11.75;11.75;;;;;;;;4997757;28;8887;-78
2022/08/16 04:32:46;;;;;;;;;15.50;13.50;;;;;;;;5002481;28;8908;-78
2022/08/16 04:35:16;;;;;;;;;14.50;14.50;;;;;;;;5000928;28;8872;-77
2022/08/16 04:37:44;;;;;;;;;13.00;13.00;;;;;;;;5001384;28;8904;-76
2022/08/16 04:40:13;;;;;;;;;17.00;14.25;;;;;;;;4997725;28;8857;-78
2022/08/16 04:42:41;;;;;;;;;13.00;13.00;;;;;;;;4994433;28;8909;-77
2022/08/16 04:45:13;;;;;;;;;12.25;12.25;;;;;;;;5003355;28;8876;-77
2022/08/16 04:47:42;;;;;;;;;12.75;12.00;;;;;;;;4997941;28;9373;-77
2022/08/16 04:50:11;;;;;;;;;13.50;13.50;;;;;;;;4999662;28;9000;-77
2022/08/16 04:52:39;;;;;;;;;11.25;11.25;;;;;;;;5001151;28;8837;-77
2022/08/16 04:55:09;;;;;;;;;14.50;13.50;;;;;;;;4998727;28;8872;-77
2022/08/16 04:57:38;;;;;;;;;13.75;13.75;;;;;;;;5002079;28;8852;-77
2022/08/16 05:00:12;;;;;;;;;12.25;11.75;;;;;;;;4998144;28;8880;-77
2022/08/16 05:02:42;;;;;;;;;12.75;12.50;;;;;;;;5000011;28;8871;-78
2022/08/16 05:05:12;;;;;;;;;12.75;10.75;;;;;;;;5000163;28;8894;-78
2022/08/16 05:07:39;;;;;;;;;15.75;12.75;;;;;;;;4999649;28;8872;-77
2022/08/16 05:10:09;;;;;;;;;11.50;11.25;;;;;;;;5001280;28;8875;-76
2022/08/16 05:12:37;;;;;;;;;14.00;13.00;;;;;;;;4998548;28;8922;-77
2022/08/16 05:15:07;;;;;;;;;10.50;10.50;;;;;;;;5000484;28;8856;-77
2022/08/16 05:17:34;;;;;;;;;10.00;10.00;;;;;;;;4999271;28;8892;-77
2022/08/16 05:20:03;;;;;;;;;13.00;13.00;;;;;;;;5000780;28;8903;-77
2022/08/16 05:22:31;;;;;;;;;12.25;12.25;;;;;;;;4999263;28;8910;-77
2022/08/16 05:24:59;;;;;;;;;14.00;13.00;;;;;;;;5000971;28;8908;-78
2022/08/16 05:27:26;;;;;;;;;10.25;9.25;;;;;;;;5000587;28;9659;-77
2022/08/16 05:29:53;;;;;;;;;11.50;10.00;;;;;;;;5000631;28;8910;-78
2022/08/16 05:32:21;;;;;;;;;15.50;15.50;;;;;;;;4995096;28;8803;-78
2022/08/16 05:34:48;;;;;;;;;12.75;11.50;;;;;;;;4997195;28;8887;-78
2022/08/16 05:37:17;;;;;;;;;15.25;15.00;;;;;;;;4998746;28;8888;-78
2022/08/16 05:39:44;;;;;;;;;16.00;16.00;;;;;;;;4997004;28;8888;-79
2022/08/16 05:42:11;;;;;;;;;19.50;19.00;;;;;;;;4997750;28;8892;-78
2022/08/16 05:44:41;;;;;;;;;15.25;15.25;;;;;;;;4999896;28;8852;-77
2022/08/16 05:47:09;;;;;;;;;17.00;17.00;;;;;;;;4997577;28;9080;-77
2022/08/16 05:49:36;;;;;;;;;17.25;17.25;;;;;;;;5002745;28;8880;-78
2022/08/16 05:52:04;;;;;;;;;18.50;18.50;;;;;;;;4998830;28;8852;-78
2022/08/16 05:54:32;;;;;;;;;20.00;17.75;;;;;;;;5002033;28;8912;-78
2022/08/16 05:57:00;;;;;;;;;16.50;16.50;;;;;;;;4997825;28;8910;-80
2022/08/16 05:59:28;;;;;;;;;13.25;13.25;;;;;;;;5003055;28;8934;-81
2022/08/16 06:01:55;;;;;;;;;13.00;13.00;;;;;;;;5002886;28;8833;-79
2022/08/16 06:04:23;;;;;;;;;13.25;13.25;;;;;;;;5000895;28;8884;-79
2022/08/16 06:06:53;;;;;;;;;19.75;19.25;;;;;;;;4999236;28;8884;-79
2022/08/16 06:09:20;;;;;;;;;20.00;16.75;;;;;;;;5003661;28;8954;-81
2022/08/16 06:11:49;;;;;;;;;13.75;13.75;;;;;;;;5001057;28;8899;-79
2022/08/16 06:14:17;;;;;;;;;19.50;19.50;;;;;;;;5000235;28;9669;-80
2022/08/16 06:16:44;;;;;;;;;16.25;16.25;;;;;;;;5003362;28;8893;-80
2022/08/16 06:19:12;;;;;;;;;18.00;14.25;;;;;;;;5003473;28;8892;-82
2022/08/16 06:21:40;;;;;;;;;19.00;16.00;;;;;;;;5003546;28;8884;-84
2022/08/16 06:24:07;;;;;;;;;17.25;17.25;;;;;;;;5000089;28;9022;-83
2022/08/16 06:26:35;;;;;;;;;20.50;17.75;;;;;;;;5000252;28;8881;-81
2022/08/16 06:29:03;;;;;;;;;21.00;17.75;;;;;;;;5003160;28;8884;-79
2022/08/16 06:31:31;;;;;;;;;21.25;21.25;;;;;;;;5000998;28;8844;-73
2022/08/16 06:34:01;;;;;;;;;17.25;17.25;;;;;;;;5002796;28;8974;-75
2022/08/16 06:36:29;;;;;;;;;16.25;16.25;;;;;;;;4998941;28;8887;-76
2022/08/16 06:38:56;;;;;;;;;27.00;25.25;;;;;;;;5000485;28;9742;-75
2022/08/16 06:41:24;;;;;;;;;25.50;25.25;;;;;;;;4996920;28;8847;-79
2022/08/16 06:43:52;;;;;;;;;26.50;26.50;;;;;;;;5001155;28;8888;-72
2022/08/16 06:46:26;;;;;;;;;22.50;21.50;;;;;;;;5002951;28;8926;-77
2022/08/16 06:48:54;;;;;;;;;20.75;18.75;;;;;;;;5002715;28;8888;-76
2022/08/16 06:51:21;;;;;;;;;26.50;26.50;;;;;;;;5001579;28;8898;-76
2022/08/16 06:53:49;;;;;;;;;25.00;24.00;;;;;;;;5000348;28;8884;-76
2022/08/16 06:56:16;;;;;;;;;25.75;25.75;;;;;;;;5005110;28;8868;-76
2022/08/16 06:58:44;;;;;;;;;22.75;22.75;;;;;;;;4998586;28;8926;-76
2022/08/16 07:01:12;;;;;;;;;29.75;27.50;;;;;;;;4999810;28;8839;-76
2022/08/16 07:03:40;;;;;;;;;27.50;27.50;;;;;;;;5000891;28;8848;-76
2022/08/16 07:06:08;;;;;;;;;28.75;27.00;;;;;;;;5002022;28;8902;-76
2022/08/16 07:08:36;;;;;;;;;28.00;26.25;;;;;;;;5007187;28;8906;-76
2022/08/16 07:11:04;;;;;;;;;28.50;27.25;;;;;;;;4998405;28;8907;-76
2022/08/16 07:13:31;;;;;;;;;30.50;30.50;;;;;;;;5003828;28;9006;-76
2022/08/16 07:15:59;;;;;;;;;29.25;29.25;;;;;;;;4998068;28;8893;-76
2022/08/16 07:18:26;;;;;;;;;36.25;32.75;;;;;;;;5006865;28;8868;-74
2022/08/16 07:20:58;;;;;;;;;33.75;32.25;;;;;;;;5001903;28;9006;-77
2022/08/16 07:23:26;;;;;;;;;27.25;27.25;;;;;;;;4999698;28;8991;-76
2022/08/16 07:25:53;;;;;;;;;32.75;31.50;;;;;;;;5005406;28;8875;-76
2022/08/16 07:28:22;;;;;;;;;34.25;30.75;;;;;;;;5002756;28;8876;-77
2022/08/16 07:30:50;;;;;;;;;34.75;32.75;;;;;;;;5003131;28;8816;-76
2022/08/16 07:33:17;;;;;;;;;34.75;31.50;;;;;;;;5000292;28;8864;-76
2022/08/16 07:35:45;;;;;;;;;28.25;28.25;;;;;;;;5004027;28;9688;-76
2022/08/16 07:38:13;;;;;;;;;36.50;32.50;;;;;;;;5003409;28;8840;-76
2022/08/16 07:40:42;;;;;;;;;36.00;32.00;;;;;;;;5003324;28;8910;-76
2022/08/16 07:43:09;;;;;;;;;28.50;26.00;;;;;;;;5004570;28;8862;-77
2022/08/16 07:45:37;;;;;;;;;33.25;31.00;;;;;;;;5002833;28;8869;-77
2022/08/16 07:48:04;;;;;;;;;39.50;35.50;;;;;;;;5002338;28;8994;-77
2022/08/16 07:50:31;;;;;;;;;35.50;31.50;;;;;;;;5002588;28;8907;-77
2022/08/16 07:52:59;;;;;;;;;35.50;31.50;;;;;;;;5001352;28;8883;-76
2022/08/16 07:55:28;;;;;;;;;34.25;32.00;;;;;;;;5001325;28;8876;-76
2022/08/16 07:57:55;;;;;;;;;37.25;33.75;;;;;;;;5002398;28;8962;-77
2022/08/16 08:00:23;;;;;;;;;36.50;33.50;;;;;;;;5001641;28;8852;-77
2022/08/16 08:02:50;;;;;;;;;38.50;33.00;;;;;;;;5000702;28;8904;-76
2022/08/16 08:05:18;;;;;;;;;29.50;28.25;;;;;;;;4986000;28;8876;-76
2022/08/16 08:07:45;;;;;;;;;32.25;30.50;;;;;;;;5002715;28;8895;-77
2022/08/16 08:10:13;;;;;;;;;29.50;28.75;;;;;;;;5003945;28;8983;-76
2022/08/16 08:12:46;;;;;;;;;36.00;32.00;;;;;;;;4997596;28;8880;-76
2022/08/16 08:15:13;;;;;;;;;29.20;27.40;;;;;;;;5001734;28;8894;-77
2022/08/16 08:17:41;;;;;;;;;36.25;33.00;;;;;;;;5001557;28;8868;-77
2022/08/16 08:20:11;;;;;;;;;29.20;27.40;;;;;;;;5002613;28;9051;-76
2022/08/16 08:22:39;;;;;;;;;37.50;33.00;;;;;;;;4999141;28;8880;-76
2022/08/16 08:25:07;;;;;;;;;39.50;34.50;;;;;;;;5002126;28;8856;-77
2022/08/16 08:27:34;;;;;;;;;37.25;32.00;;;;;;;;5002367;28;8864;-76
2022/08/16 08:30:04;;;;;;;;;33.75;31.50;;;;;;;;5000043;28;8914;-76
2022/08/16 08:32:31;;;;;;;;;38.00;33.00;;;;;;;;5002441;28;8895;-78
2022/08/16 08:35:01;;;;;;;;;35.75;32.25;;;;;;;;5001712;28;8999;-78
2022/08/16 08:37:28;;;;;;;;;33.00;31.75;;;;;;;;5000719;28;8955;-77
2022/08/16 08:39:55;;;;;;;;;29.80;28.00;;;;;;;;5002803;28;8906;-77
2022/08/16 08:42:22;;;;;;;;;36.80;32.20;;;;;;;;4999483;28;8852;-77
2022/08/16 08:44:50;;;;;;;;;36.20;32.40;;;;;;;;4999980;28;8927;-77
2022/08/16 08:47:19;;;;;;;;;31.00;30.20;;;;;;;;5000450;28;8876;-79
2022/08/16 08:49:47;;;;;;;;;29.20;27.80;;;;;;;;5001527;28;8990;-79
2022/08/16 08:52:18;;;;;;;;;35.40;32.60;;;;;;;;5001028;28;8884;-78
2022/08/16 08:54:48;;;;;;;;;28.80;28.60;;;;;;;;5000289;28;8898;-77
2022/08/16 08:57:17;;;;;;;;;30.60;29.80;;;;;;;;5000561;28;8880;-77
2022/08/16 08:59:45;;;;;;;;;34.20;32.00;;;;;;;;5000588;28;9712;-77
2022/08/16 09:02:15;;;;;;;;;32.80;31.40;;;;;;;;4998468;28;8836;-77
2022/08/16 09:04:44;;;;;;;;;32.00;30.00;;;;;;;;5000724;28;9639;-77
2022/08/16 09:07:12;;;;;;;;;32.00;30.20;;;;;;;;5000108;28;8873;-78
2022/08/16 09:09:40;;;;;;;;;30.40;29.80;;;;;;;;5001253;28;8856;-77
2022/08/16 09:12:08;;;;;;;;;29.20;29.20;;;;;;;;4999246;28;8968;-77
2022/08/16 09:14:37;;;;;;;;;27.80;27.80;;;;;;;;5001305;28;8907;-77
2022/08/16 09:17:07;;;;;;;;;25.40;25.20;;;;;;;;5001298;28;8888;-78
2022/08/16 09:19:36;;;;;;;;;31.40;29.80;;;;;;;;5001309;28;8907;-77
2022/08/16 09:22:06;;;;;;;;;29.60;29.00;;;;;;;;4998341;28;8903;-77
2022/08/16 09:24:34;;;;;;;;;30.20;29.60;;;;;;;;5001065;28;9006;-77
2022/08/16 09:27:01;;;;;;;;;23.60;23.60;;;;;;;;5000550;28;8868;-77
2022/08/16 09:29:29;;;;;;;;;25.80;23.40;;;;;;;;4998762;28;8889;-76
2022/08/16 09:31:57;;;;;;;;;29.80;26.60;;;;;;;;4999803;28;8828;-77
2022/08/16 09:34:24;;;;;;;;;27.60;25.60;;;;;;;;4996901;28;8975;-77
2022/08/16 09:36:56;;;;;;;;;30.80;27.40;;;;;;;;5005472;28;8899;-77
2022/08/16 09:39:25;;;;;;;;;25.20;22.00;;;;;;;;5000293;28;8881;-77
2022/08/16 09:41:54;;;;;;;;;24.20;22.80;;;;;;;;4999839;28;8906;-77
2022/08/16 09:44:23;;;;;;;;;22.40;21.00;;;;;;;;4992745;28;8913;-77
2022/08/16 09:46:51;;;;;;;;;23.20;23.00;;;;;;;;4997157;28;8884;-73
2022/08/16 09:49:19;;;;;;;;;18.00;18.00;;;;;;;;4999512;28;8922;-75
2022/08/16 09:51:52;;;;;;;;;21.80;19.80;;;;;;;;4998754;28;8892;-75
2022/08/16 09:54:19;;;;;;;;;23.40;22.40;;;;;;;;4998408;28;8856;-75
2022/08/16 09:56:49;;;;;;;;;23.00;23.00;;;;;;;;4997857;28;8905;-77
2022/08/16 09:59:16;;;;;;;;;22.00;22.00;;;;;;;;5002099;28;8864;-76
2022/08/16 10:01:46;;;;;;;;;21.20;21.20;;;;;;;;4997426;28;8856;-76
2022/08/16 10:04:14;;;;;;;;;17.80;16.20;;;;;;;;4994156;28;8860;-75
2022/08/16 10:06:44;;;;;;;;;17.20;17.20;;;;;;;;4999274;28;8852;-75
2022/08/16 10:09:13;;;;;;;;;15.80;15.80;;;;;;;;4995397;28;8872;-75
2022/08/16 10:14:29;;;;;;;;;14.00;14.00;;;;;;;;4998753;28;8841;-75
2022/08/16 10:16:58;;;;;;;;;17.60;17.00;;;;;;;;5000242;28;8974;-75
2022/08/16 10:19:26;;;;;;;;;17.80;17.80;;;;;;;;5002031;28;8864;-77
2022/08/16 10:21:54;;;;;;;;;16.80;16.80;;;;;;;;5006217;28;8926;-75
2022/08/16 10:24:21;;;;;;;;;16.60;16.20;;;;;;;;4997910;28;8938;-76
2022/08/16 10:26:49;;;;;;;;;15.40;15.40;;;;;;;;4999572;28;8877;-77
2022/08/16 10:29:19;;;;;;;;;14.40;14.00;;;;;;;;4999754;28;8991;-77
2022/08/16 10:31:48;;;;;;;;;17.80;17.80;;;;;;;;4995737;28;9772;-75
2022/08/16 10:34:16;;;;;;;;;12.20;12.20;;;;;;;;4993236;28;8946;-75
2022/08/16 10:36:43;;;;;;;;;12.60;12.60;;;;;;;;4999099;28;9548;-73
2022/08/16 10:39:10;;;;;;;;;18.00;14.20;;;;;;;;5005306;28;8950;-75
2022/08/16 10:41:38;;;;;;;;;9.40;9.40;;;;;;;;4998760;28;8895;-75
2022/08/16 10:44:05;;;;;;;;;11.80;11.80;;;;;;;;4997123;28;8863;-75
2022/08/16 10:46:33;;;;;;;;;13.40;13.40;;;;;;;;5002258;28;8864;-74
2022/08/16 10:49:02;;;;;;;;;11.00;10.00;;;;;;;;5002954;28;8868;-75
2022/08/16 10:51:31;;;;;;;;;10.60;10.60;;;;;;;;5001955;28;8890;-75
2022/08/16 10:53:58;;;;;;;;;15.80;14.20;;;;;;;;4999309;28;8872;-74
2022/08/16 10:56:26;;;;;;;;;11.20;11.20;;;;;;;;5002290;28;8876;-75
2022/08/16 10:58:56;;;;;;;;;12.60;12.60;;;;;;;;5003636;28;8906;-74
2022/08/16 11:01:25;;;;;;;;;10.80;10.80;;;;;;;;4997119;28;8816;-75
2022/08/16 11:03:53;;;;;;;;;12.00;10.80;;;;;;;;5002210;28;8856;-75
2022/08/16 11:06:23;;;;;;;;;12.20;12.20;;;;;;;;5000642;28;9691;-75
2022/08/16 11:08:50;;;;;;;;;11.40;11.40;;;;;;;;5002639;28;8883;-75
2022/08/16 11:11:17;;;;;;;;;12.00;10.40;;;;;;;;4998772;28;9022;-75
2022/08/16 11:13:47;;;;;;;;;10.20;9.80;;;;;;;;5001805;28;8872;-75
2022/08/16 11:16:14;;;;;;;;;12.60;10.60;;;;;;;;4998881;28;8891;-75
2022/08/16 11:18:42;;;;;;;;;13.60;13.60;;;;;;;;5003750;28;9619;-75
2022/08/16 11:21:09;;;;;;;;;9.60;9.00;;;;;;;;5002800;28;8860;-75
2022/08/16 11:23:38;;;;;;;;;12.60;12.60;;;;;;;;4999494;28;8893;-74
2022/08/16 11:26:06;;;;;;;;;12.20;11.00;;;;;;;;5001662;28;8872;-73
2022/08/16 11:28:35;;;;;;;;;13.40;13.40;;;;;;;;5003034;28;8884;-74
2022/08/16 11:31:02;;;;;;;;;13.40;12.00;;;;;;;;5003047;28;8817;-74
2022/08/16 11:33:30;;;;;;;;;10.20;10.20;;;;;;;;4999912;28;9015;-74
2022/08/16 11:35:57;;;;;;;;;12.00;10.40;;;;;;;;5001654;28;8884;-74
2022/08/16 11:38:29;;;;;;;;;12.00;10.20;;;;;;;;5002124;28;8880;-75
2022/08/16 11:41:00;;;;;;;;;9.60;9.60;;;;;;;;4997185;28;8876;-78
2022/08/16 11:43:30;;;;;;;;;12.80;11.60;;;;;;;;5000433;28;8872;-75
2022/08/16 11:45:59;;;;;;;;;8.20;8.20;;;;;;;;5000730;28;9642;-75
2022/08/16 11:48:29;;;;;;;;;12.60;11.60;;;;;;;;5000882;28;8852;-75
2022/08/16 11:50:57;;;;;;;;;10.60;10.60;;;;;;;;4998170;28;8864;-75
2022/08/16 11:53:25;;;;;;;;;13.40;13.40;;;;;;;;4997513;28;8986;-75
2022/08/16 11:55:53;;;;;;;;;12.00;12.00;;;;;;;;5000375;28;8856;-75
2022/08/16 11:58:23;;;;;;;;;12.60;12.60;;;;;;;;4999812;28;8896;-75
2022/08/16 12:00:50;;;;;;;;;8.80;8.80;;;;;;;;5002834;28;8891;-76
2022/08/16 12:03:18;;;;;;;;;12.80;11.60;;;;;;;;4994238;28;8876;-78
2022/08/16 12:05:46;;;;;;;;;9.40;9.40;;;;;;;;4999605;28;8860;-77
2022/08/16 12:08:14;;;;;;;;;10.00;10.00;;;;;;;;4998822;28;8896;-75
2022/08/16 12:10:45;;;;;;;;;11.20;11.20;;;;;;;;4999343;28;8860;-75
2022/08/16 12:13:14;;;;;;;;;11.80;11.80;;;;;;;;4999980;28;8903;-77
2022/08/16 12:15:44;;;;;;;;;9.60;9.60;;;;;;;;4998352;28;8902;-76
2022/08/16 12:18:12;;;;;;;;;12.20;12.20;;;;;;;;5003866;28;8849;-73
2022/08/16 12:20:41;;;;;;;;;11.40;9.80;;;;;;;;4998386;28;8914;-73
2022/08/16 12:23:09;;;;;;;;;12.60;12.60;;;;;;;;5000269;28;8868;-73
2022/08/16 12:25:37;;;;;;;;;10.40;10.40;;;;;;;;4999527;28;9614;-77
2022/08/16 12:28:07;;;;;;;;;12.40;11.20;;;;;;;;5001457;28;8967;-78
2022/08/16 12:30:37;;;;;;;;;13.00;11.20;;;;;;;;5000329;28;8812;-73
2022/08/16 12:33:07;;;;;;;;;13.40;11.60;;;;;;;;4997879;28;8886;-72
2022/08/16 12:35:37;;;;;;;;;14.20;14.20;;;;;;;;4996070;28;8825;-71
2022/08/16 12:38:07;;;;;;;;;13.80;12.40;;;;;;;;4999968;28;8876;-72
2022/08/16 12:40:37;;;;;;;;;11.80;11.80;;;;;;;;5000718;28;8921;-70
2022/08/16 12:43:06;;;;;;;;;12.80;12.80;;;;;;;;4997463;28;8888;-70
2022/08/16 12:45:37;;;;;;;;;12.60;12.20;;;;;;;;4999482;28;8880;-69
2022/08/16 12:50:53;;;;;;;;;11.80;11.80;;;;;;;;5000414;28;8856;-71
2022/08/16 12:53:22;;;;;;;;;10.60;10.60;;;;;;;;4997824;28;8973;-79
2022/08/16 12:55:49;;;;;;;;;8.60;8.60;;;;;;;;4997736;28;8863;-74
2022/08/16 12:58:17;;;;;;;;;8.20;8.20;;;;;;;;4999139;28;8930;-75
2022/08/16 13:00:44;;;;;;;;;12.40;10.80;;;;;;;;4997802;28;8854;-74
2022/08/16 13:03:15;;;;;;;;;12.40;10.80;;;;;;;;4997875;28;8880;-74
2022/08/16 13:05:42;;;;;;;;;12.80;12.80;;;;;;;;4996903;28;8888;-76
2022/08/16 13:08:12;;;;;;;;;12.20;10.40;;;;;;;;4998977;28;8904;-72
2022/08/16 13:10:39;;;;;;;;;10.80;10.80;;;;;;;;4997611;28;8887;-70
2022/08/16 13:13:07;;;;;;;;;15.40;12.40;;;;;;;;4998772;28;9012;-68
2022/08/16 13:15:36;;;;;;;;;11.40;11.40;;;;;;;;4996410;28;9917;-71
2022/08/16 13:18:04;;;;;;;;;15.80;12.40;;;;;;;;4993631;28;9070;-67
2022/08/16 13:20:33;;;;;;;;;10.00;10.00;;;;;;;;5000835;28;8872;-70
2022/08/16 13:23:03;;;;;;;;;12.80;10.80;;;;;;;;4998881;28;10190;-73
2022/08/16 13:25:33;;;;;;;;;15.40;13.60;;;;;;;;4998096;28;8982;-72
2022/08/16 13:28:01;;;;;;;;;15.00;14.20;;;;;;;;5001689;28;8888;-68
2022/08/16 13:30:30;;;;;;;;;13.40;12.20;;;;;;;;4994205;28;8818;-68
2022/08/16 13:32:57;;;;;;;;;12.80;10.80;;;;;;;;4998295;28;8864;-69
2022/08/16 13:35:25;;;;;;;;;13.80;13.80;;;;;;;;5000341;28;8880;-68
2022/08/16 13:37:54;;;;;;;;;12.60;12.60;;;;;;;;5000296;28;9708;-70
2022/08/16 13:40:22;;;;;;;;;12.80;10.80;;;;;;;;5001470;28;8886;-72
2022/08/16 13:42:52;;;;;;;;;12.40;12.40;;;;;;;;4997923;28;8882;-71
2022/08/16 13:45:19;;;;;;;;;10.00;10.00;;;;;;;;5001076;28;8972;-70
2022/08/16 13:47:47;;;;;;;;;9.00;8.40;;;;;;;;4998940;28;8876;-70
2022/08/16 13:50:15;;;;;;;;;11.60;11.60;;;;;;;;5000648;28;8899;-71
2022/08/16 13:52:43;;;;;;;;;12.00;12.00;;;;;;;;4996690;28;8907;-70
2022/08/16 13:55:11;;;;;;;;;14.80;14.80;;;;;;;;5001982;28;8938;-70
2022/08/16 13:57:39;;;;;;;;;14.80;14.80;;;;;;;;4999519;28;8970;-71
2022/08/16 14:00:07;;;;;;;;;15.00;13.20;;;;;;;;4999297;28;8946;-70
2022/08/16 14:02:35;;;;;;;;;15.60;14.80;;;;;;;;4997657;28;9887;-70
2022/08/16 14:05:03;;;;;;;;;12.60;12.00;;;;;;;;4999487;28;9006;-69
2022/08/16 14:07:31;;;;;;;;;12.00;12.00;;;;;;;;4998024;28;8880;-72
2022/08/16 14:09:58;;;;;;;;;10.80;10.80;;;;;;;;4999063;28;8907;-72
2022/08/16 14:12:30;;;;;;;;;11.00;11.00;;;;;;;;4999110;28;8898;-71
2022/08/16 14:14:58;;;;;;;;;11.00;11.00;;;;;;;;5000390;28;8845;-70
2022/08/16 14:17:26;;;;;;;;;12.40;12.40;;;;;;;;5000796;28;8890;-72
2022/08/16 14:19:54;;;;;;;;;10.20;10.20;;;;;;;;5000941;28;8864;-70
2022/08/16 14:22:24;;;;;;;;;10.00;10.00;;;;;;;;5001329;28;9041;-76
2022/08/16 14:24:53;;;;;;;;;9.60;9.60;;;;;;;;5003526;28;8872;-71
2022/08/16 14:27:23;;;;;;;;;10.00;10.00;;;;;;;;5003031;28;8946;-70
2022/08/16 14:29:53;;;;;;;;;12.80;11.40;;;;;;;;5003225;28;8864;-73
2022/08/16 14:32:23;;;;;;;;;9.60;9.60;;;;;;;;4997964;28;8844;-69
2022/08/16 14:34:50;;;;;;;;;10.80;10.80;;;;;;;;5003309;28;8883;-70
2022/08/16 14:37:18;;;;;;;;;12.20;11.40;;;;;;;;5001801;28;8975;-71
2022/08/16 14:39:45;;;;;;;;;13.00;10.00;;;;;;;;4998176;28;8907;-69
2022/08/16 14:42:16;;;;;;;;;10.40;10.40;;;;;;;;5004466;28;8848;-72
2022/08/16 14:44:44;;;;;;;;;9.80;9.00;;;;;;;;4999293;28;8872;-72